Leesburg, Indiana
Current Conditions -  °F | °C
As of 1:35 AM on Thursday 27 Nov 2014 (Local Time) from KASW Reporting Station
Overcast Overcast  
Wind Chill: 22°   Ceiling: 3900
Heat Index: 28°   Visibility: 10mi
Dew Point: 23°   Wind: 6mph
Humidity: 80%   Direction: 330°NNW
Pressure: 30.13"   Gusts: NA
Location:  41.33°N, 85.85°W
Report Text: KASW 270635Z AUTO 33005KT 10SM SCT031 OVC039 M02/M05 A3013 RMK AO2
Loading
Personal Weather Stations






























Interactive Weather Map New forecast layout! Learn more

10-Day Weather Forecast

Advertisements
Track Severe Weather on mobile